Time;durP1;ratioP1;P1;durP2;ratioP2;P2;SDS_P1;SDS_P2;PMS_P1;PMS_P2;Temp;Humidity;BMP_temperature;BMP_pressure;BME280_temperature;BME280_humidity;BME280_pressure;Samples;Min_cycle;Max_cycle;Signal;HPM_P1;HPM_P2
2022/10/09 00:01:21;;;;;;;1.20;1.20;;;;;;;;;;5021555;28;20204;-60
2022/10/09 00:03:49;;;;;;;0.70;0.70;;;;;;;;;;5019870;28;20312;-60
2022/10/09 00:06:18;;;;;;;1.40;1.10;;;;;;;;;;5019554;28;20307;-59
2022/10/09 00:08:46;;;;;;;0.90;0.90;;;;;;;;;;5013633;28;20338;-60
2022/10/09 00:11:15;;;;;;;0.90;0.90;;;;;;;;;;5020760;28;20212;-60
2022/10/09 00:13:42;;;;;;;0.93;0.93;;;;;;;;;;5021077;28;20228;-60
2022/10/09 00:16:11;;;;;;;1.27;0.83;;;;;;;;;;5026893;28;20314;-60
2022/10/09 00:18:38;;;;;;;0.83;0.83;;;;;;;;;;5025586;28;20213;-60
2022/10/09 00:21:06;;;;;;;1.73;1.00;;;;;;;;;;5025286;28;20725;-59
2022/10/09 00:23:33;;;;;;;0.90;0.90;;;;;;;;;;5028087;28;20215;-61
2022/10/09 00:26:01;;;;;;;1.00;1.00;;;;;;;;;;5023623;28;20228;-59
2022/10/09 00:28:30;;;;;;;0.90;0.90;;;;;;;;;;5024667;28;20674;-59
2022/10/09 00:30:57;;;;;;;2.47;1.30;;;;;;;;;;5027055;28;20197;-60
2022/10/09 00:33:24;;;;;;;0.70;0.70;;;;;;;;;;5022539;28;20871;-59
2022/10/09 00:35:51;;;;;;;4.57;1.30;;;;;;;;;;5024095;28;20231;-59
2022/10/09 00:38:18;;;;;;;4.50;1.00;;;;;;;;;;5027956;28;20587;-60
2022/10/09 00:40:46;;;;;;;2.23;1.67;;;;;;;;;;5024839;28;20685;-60
2022/10/09 00:43:15;;;;;;;1.80;1.70;;;;;;;;;;5023116;28;20203;-59
2022/10/09 00:45:45;;;;;;;1.47;1.47;;;;;;;;;;5025568;28;20248;-62
2022/10/09 00:48:13;;;;;;;1.97;1.87;;;;;;;;;;5022363;28;20201;-60
2022/10/09 00:50:41;;;;;;;1.30;1.20;;;;;;;;;;5023054;28;20219;-60
2022/10/09 00:53:10;;;;;;;2.97;2.13;;;;;;;;;;5025282;28;20660;-60
2022/10/09 00:55:37;;;;;;;4.80;3.27;;;;;;;;;;5023714;28;20200;-60
2022/10/09 00:58:05;;;;;;;2.43;2.20;;;;;;;;;;5022644;28;20208;-60
2022/10/09 01:00:32;;;;;;;2.63;1.83;;;;;;;;;;5025764;28;20207;-60
2022/10/09 01:03:01;;;;;;;1.43;1.33;;;;;;;;;;5022730;28;20229;-60
2022/10/09 01:05:34;;;;;;;1.70;1.60;;;;;;;;;;5021492;28;20236;-60
2022/10/09 01:08:06;;;;;;;1.57;1.53;;;;;;;;;;5026795;28;20915;-60
2022/10/09 01:10:36;;;;;;;1.60;1.50;;;;;;;;;;5023853;28;20208;-61
2022/10/09 01:13:07;;;;;;;1.20;1.20;;;;;;;;;;5023716;28;20224;-60
2022/10/09 01:15:36;;;;;;;2.50;1.17;;;;;;;;;;5025356;28;20228;-60
2022/10/09 01:18:07;;;;;;;1.00;1.00;;;;;;;;;;5027021;28;20197;-60
2022/10/09 01:20:37;;;;;;;3.73;1.17;;;;;;;;;;5026162;28;20207;-60
2022/10/09 01:23:12;;;;;;;1.10;1.10;;;;;;;;;;5029216;28;20209;-60
2022/10/09 01:25:45;;;;;;;1.70;1.20;;;;;;;;;;5022359;28;20255;-61
2022/10/09 01:28:15;;;;;;;1.30;1.30;;;;;;;;;;5026350;28;20201;-62
2022/10/09 01:30:42;;;;;;;1.63;1.23;;;;;;;;;;5021331;28;20205;-60
2022/10/09 01:33:10;;;;;;;1.57;1.47;;;;;;;;;;5021594;28;20208;-60
2022/10/09 01:35:37;;;;;;;2.20;1.27;;;;;;;;;;5022551;28;20201;-60
2022/10/09 01:38:05;;;;;;;1.67;0.90;;;;;;;;;;5022325;28;20212;-60
2022/10/09 01:40:32;;;;;;;1.87;1.00;;;;;;;;;;5025297;28;20745;-60
2022/10/09 01:42:59;;;;;;;2.90;1.13;;;;;;;;;;5023010;28;20216;-60
2022/10/09 01:45:36;;;;;;;1.30;1.20;;;;;;;;;;5026443;28;20702;-59
2022/10/09 01:48:04;;;;;;;7.10;1.17;;;;;;;;;;5023188;28;20208;-60
2022/10/09 01:50:33;;;;;;;1.80;1.10;;;;;;;;;;5023480;28;20216;-60
2022/10/09 01:53:01;;;;;;;1.20;1.20;;;;;;;;;;5024515;28;20682;-60
2022/10/09 01:55:33;;;;;;;2.03;1.33;;;;;;;;;;5024393;28;20209;-60
2022/10/09 01:58:05;;;;;;;1.33;1.23;;;;;;;;;;5021666;28;20204;-60
2022/10/09 02:00:35;;;;;;;1.43;1.43;;;;;;;;;;5025174;28;20223;-60
2022/10/09 02:03:03;;;;;;;1.30;1.20;;;;;;;;;;5025382;28;20247;-60
2022/10/09 02:05:31;;;;;;;1.30;1.20;;;;;;;;;;5027690;28;20233;-60
2022/10/09 02:07:58;;;;;;;1.00;1.00;;;;;;;;;;5028304;28;20200;-60
2022/10/09 02:10:26;;;;;;;1.60;1.50;;;;;;;;;;5021739;28;20242;-60
2022/10/09 02:12:58;;;;;;;1.63;1.63;;;;;;;;;;5022231;28;20551;-60
2022/10/09 02:15:27;;;;;;;1.27;1.20;;;;;;;;;;5021584;28;20207;-60
2022/10/09 02:17:56;;;;;;;1.97;1.43;;;;;;;;;;5025616;28;20215;-60
2022/10/09 02:20:26;;;;;;;1.30;1.30;;;;;;;;;;5028816;28;20200;-60
2022/10/09 02:22:54;;;;;;;1.73;1.63;;;;;;;;;;5028620;28;20709;-59
2022/10/09 02:25:21;;;;;;;3.00;1.73;;;;;;;;;;5028511;28;20232;-60
2022/10/09 02:27:48;;;;;;;3.37;1.50;;;;;;;;;;5027565;28;20243;-60
2022/10/09 02:30:16;;;;;;;1.50;1.50;;;;;;;;;;5017944;28;20197;-60
2022/10/09 02:32:43;;;;;;;2.70;1.77;;;;;;;;;;5028495;28;20210;-60
2022/10/09 02:35:11;;;;;;;8.53;2.00;;;;;;;;;;5028277;28;20212;-60
2022/10/09 02:37:38;;;;;;;4.93;2.07;;;;;;;;;;5027396;28;20250;-60
2022/10/09 02:40:06;;;;;;;1.80;1.70;;;;;;;;;;5028130;28;20219;-60
2022/10/09 02:42:33;;;;;;;1.27;1.27;;;;;;;;;;5028162;28;20213;-60
2022/10/09 02:45:00;;;;;;;1.53;1.43;;;;;;;;;;5028705;28;20221;-60
2022/10/09 02:47:27;;;;;;;1.70;1.60;;;;;;;;;;5027778;28;20207;-60
2022/10/09 02:49:55;;;;;;;2.20;1.53;;;;;;;;;;5028071;28;20208;-60
2022/10/09 02:52:23;;;;;;;2.70;1.60;;;;;;;;;;5028137;28;20640;-60
2022/10/09 02:54:51;;;;;;;2.40;1.50;;;;;;;;;;5027729;28;20670;-60
2022/10/09 02:57:18;;;;;;;2.93;1.57;;;;;;;;;;5028065;28;20207;-59
2022/10/09 02:59:45;;;;;;;2.60;1.87;;;;;;;;;;5028089;28;20200;-60
2022/10/09 03:02:12;;;;;;;1.83;1.73;;;;;;;;;;5027711;28;20208;-60
2022/10/09 03:04:39;;;;;;;1.80;1.70;;;;;;;;;;5027653;28;20608;-60
2022/10/09 03:07:06;;;;;;;2.10;2.00;;;;;;;;;;5028125;28;20880;-59
2022/10/09 03:09:34;;;;;;;2.43;1.80;;;;;;;;;;5027603;28;20204;-60
2022/10/09 03:12:01;;;;;;;1.93;1.83;;;;;;;;;;5025314;28;20211;-60
2022/10/09 03:14:28;;;;;;;2.40;1.70;;;;;;;;;;5027280;28;20212;-60
2022/10/09 03:16:56;;;;;;;2.07;1.87;;;;;;;;;;5027443;28;20200;-60
2022/10/09 03:19:23;;;;;;;1.93;1.70;;;;;;;;;;5027083;28;20201;-60
2022/10/09 03:21:50;;;;;;;1.70;1.60;;;;;;;;;;5027079;28;20208;-60
2022/10/09 03:24:17;;;;;;;3.23;1.53;;;;;;;;;;5027672;28;20674;-60
2022/10/09 03:26:45;;;;;;;2.17;2.07;;;;;;;;;;5026157;28;20243;-60
2022/10/09 03:29:12;;;;;;;1.90;1.80;;;;;;;;;;5025717;28;20200;-60
2022/10/09 03:31:39;;;;;;;2.10;2.00;;;;;;;;;;5025261;28;20208;-59
2022/10/09 03:34:06;;;;;;;2.47;2.27;;;;;;;;;;5026625;28;20662;-60
2022/10/09 03:36:34;;;;;;;3.63;2.30;;;;;;;;;;5026649;28;20889;-60
2022/10/09 03:39:01;;;;;;;4.80;1.90;;;;;;;;;;5027007;28;20231;-60
2022/10/09 03:41:28;;;;;;;5.00;2.37;;;;;;;;;;5026705;28;20215;-60
2022/10/09 03:43:56;;;;;;;6.17;2.33;;;;;;;;;;5027022;28;20666;-60
2022/10/09 03:46:23;;;;;;;2.23;2.13;;;;;;;;;;5026920;28;20224;-60
2022/10/09 03:48:50;;;;;;;2.97;2.23;;;;;;;;;;5029552;28;20203;-60
2022/10/09 03:51:17;;;;;;;1.83;1.80;;;;;;;;;;5034209;28;20204;-60
2022/10/09 03:53:44;;;;;;;4.57;2.80;;;;;;;;;;5031162;28;20204;-60
2022/10/09 03:56:11;;;;;;;2.83;2.63;;;;;;;;;;5034049;28;20200;-59
2022/10/09 03:58:41;;;;;;;4.20;2.40;;;;;;;;;;5033959;28;20689;-59
2022/10/09 04:01:10;;;;;;;2.83;2.63;;;;;;;;;;5033826;28;20633;-60
2022/10/09 04:03:37;;;;;;;6.47;2.20;;;;;;;;;;5034362;28;20227;-60
2022/10/09 04:06:04;;;;;;;2.67;2.47;;;;;;;;;;5033876;28;20224;-59
2022/10/09 04:08:31;;;;;;;2.50;2.30;;;;;;;;;;5034234;28;20203;-59
2022/10/09 04:10:58;;;;;;;3.77;2.67;;;;;;;;;;5034168;28;20207;-60
2022/10/09 04:13:25;;;;;;;3.23;2.57;;;;;;;;;;5033747;28;20211;-60
2022/10/09 04:15:53;;;;;;;3.13;2.37;;;;;;;;;;5034324;28;20204;-60
2022/10/09 04:18:21;;;;;;;7.30;2.70;;;;;;;;;;5033509;28;20204;-59
2022/10/09 04:20:50;;;;;;;5.70;2.87;;;;;;;;;;5033632;28;20211;-60
2022/10/09 04:23:17;;;;;;;3.47;2.70;;;;;;;;;;5031606;28;20227;-60
2022/10/09 04:25:44;;;;;;;2.90;2.63;;;;;;;;;;5033755;28;20288;-59
2022/10/09 04:28:11;;;;;;;3.73;2.83;;;;;;;;;;5030439;28;20530;-59
2022/10/09 04:30:38;;;;;;;11.20;2.90;;;;;;;;;;5033625;28;20211;-59
2022/10/09 04:33:05;;;;;;;3.13;2.93;;;;;;;;;;5032694;28;20219;-60
2022/10/09 04:35:34;;;;;;;2.40;2.30;;;;;;;;;;5031998;28;20192;-59
2022/10/09 04:38:02;;;;;;;2.90;2.70;;;;;;;;;;5030786;28;20282;-60
2022/10/09 04:40:29;;;;;;;3.87;2.23;;;;;;;;;;5030347;28;20907;-60
2022/10/09 04:42:56;;;;;;;3.23;2.60;;;;;;;;;;5032258;28;20662;-60
2022/10/09 04:45:23;;;;;;;2.70;2.53;;;;;;;;;;5031182;28;20816;-59
2022/10/09 04:47:50;;;;;;;2.60;2.40;;;;;;;;;;5031553;28;20231;-61
2022/10/09 04:50:17;;;;;;;3.67;2.90;;;;;;;;;;5031621;28;20211;-61
2022/10/09 04:52:45;;;;;;;2.43;2.33;;;;;;;;;;5030876;28;20242;-60
2022/10/09 04:55:13;;;;;;;3.77;2.87;;;;;;;;;;5031922;28;20208;-61
2022/10/09 04:57:40;;;;;;;3.40;2.93;;;;;;;;;;5032020;28;20200;-60
2022/10/09 05:00:07;;;;;;;4.37;3.20;;;;;;;;;;5030069;28;20212;-61
2022/10/09 05:02:34;;;;;;;3.10;2.90;;;;;;;;;;5029493;28;20211;-60
2022/10/09 05:05:01;;;;;;;3.03;2.60;;;;;;;;;;5030687;28;20212;-61
2022/10/09 05:07:28;;;;;;;2.87;2.70;;;;;;;;;;5029239;28;20224;-61
2022/10/09 05:09:57;;;;;;;2.67;2.43;;;;;;;;;;5027523;28;20212;-60
2022/10/09 05:12:24;;;;;;;6.00;3.27;;;;;;;;;;5029291;28;20223;-61
2022/10/09 05:14:51;;;;;;;3.20;2.87;;;;;;;;;;5029489;28;20562;-61
2022/10/09 05:17:18;;;;;;;6.10;3.00;;;;;;;;;;5029274;28;20675;-60
2022/10/09 05:19:46;;;;;;;3.80;3.00;;;;;;;;;;5027494;28;20689;-61
2022/10/09 05:22:13;;;;;;;4.03;2.70;;;;;;;;;;5028704;28;20602;-61
2022/10/09 05:24:40;;;;;;;3.40;3.10;;;;;;;;;;5028344;28;20216;-60
2022/10/09 05:27:08;;;;;;;3.37;3.07;;;;;;;;;;5028717;28;20299;-61
2022/10/09 05:29:35;;;;;;;3.07;2.63;;;;;;;;;;5028374;28;20204;-60
2022/10/09 05:32:02;;;;;;;2.70;2.50;;;;;;;;;;5028430;28;20851;-60
2022/10/09 05:34:29;;;;;;;3.37;3.17;;;;;;;;;;5027305;28;20225;-61
2022/10/09 05:36:59;;;;;;;3.20;3.00;;;;;;;;;;5028736;28;20200;-60
2022/10/09 05:39:26;;;;;;;3.27;2.93;;;;;;;;;;5026218;28;20216;-59
2022/10/09 05:41:53;;;;;;;4.10;3.37;;;;;;;;;;5027462;28;20210;-59
2022/10/09 05:44:21;;;;;;;2.50;2.37;;;;;;;;;;5027904;28;20215;-59
2022/10/09 05:46:48;;;;;;;2.93;2.70;;;;;;;;;;5026461;28;20234;-59
2022/10/09 05:49:15;;;;;;;8.13;3.37;;;;;;;;;;5026481;28;20204;-60
2022/10/09 05:51:42;;;;;;;3.07;2.53;;;;;;;;;;5028813;28;20208;-60
2022/10/09 05:54:13;;;;;;;2.80;2.60;;;;;;;;;;5027977;28;20217;-60
2022/10/09 05:56:41;;;;;;;2.97;2.60;;;;;;;;;;5028041;28;20250;-60
2022/10/09 05:59:09;;;;;;;2.40;2.20;;;;;;;;;;5028238;28;20204;-60
2022/10/09 06:01:38;;;;;;;6.37;3.47;;;;;;;;;;5027789;28;20227;-60
2022/10/09 06:04:08;;;;;;;7.97;2.90;;;;;;;;;;5028054;28;20774;-60
2022/10/09 06:06:37;;;;;;;2.77;2.57;;;;;;;;;;5027646;28;20224;-61
2022/10/09 06:09:05;;;;;;;3.00;2.43;;;;;;;;;;5028188;28;20206;-59
2022/10/09 06:11:33;;;;;;;3.33;2.50;;;;;;;;;;5027883;28;20215;-60
2022/10/09 06:14:01;;;;;;;2.53;2.40;;;;;;;;;;5027834;28;20205;-59
2022/10/09 06:16:29;;;;;;;5.47;2.77;;;;;;;;;;5027666;28;20212;-59
2022/10/09 06:18:58;;;;;;;5.33;3.57;;;;;;;;;;5027611;28;20208;-61
2022/10/09 06:21:25;;;;;;;4.00;2.90;;;;;;;;;;5027611;28;20676;-60
2022/10/09 06:23:53;;;;;;;4.37;3.60;;;;;;;;;;5027722;28;20808;-60
2022/10/09 06:26:20;;;;;;;3.90;3.00;;;;;;;;;;5027266;28;21640;-60
2022/10/09 06:28:48;;;;;;;4.10;3.00;;;;;;;;;;5027811;28;20219;-61
2022/10/09 06:31:16;;;;;;;2.73;2.43;;;;;;;;;;5026481;28;20701;-60
2022/10/09 06:33:44;;;;;;;6.87;2.93;;;;;;;;;;5028150;28;20213;-61
2022/10/09 06:36:13;;;;;;;4.43;2.73;;;;;;;;;;5027445;28;20200;-60
2022/10/09 06:38:41;;;;;;;3.53;2.73;;;;;;;;;;5027800;28;20667;-60
2022/10/09 06:41:08;;;;;;;5.10;3.67;;;;;;;;;;5028841;28;20663;-60
2022/10/09 06:43:36;;;;;;;4.03;3.57;;;;;;;;;;5028355;28;20239;-60
2022/10/09 06:46:03;;;;;;;5.90;3.60;;;;;;;;;;5027968;28;20208;-60
2022/10/09 06:48:31;;;;;;;5.17;3.77;;;;;;;;;;5027117;28;20207;-60
2022/10/09 06:51:01;;;;;;;6.37;2.90;;;;;;;;;;5026788;28;20204;-60
2022/10/09 06:53:30;;;;;;;6.83;4.97;;;;;;;;;;5027543;28;20963;-60
2022/10/09 06:55:58;;;;;;;1.97;1.87;;;;;;;;;;5027363;28;20214;-60
2022/10/09 06:58:25;;;;;;;5.37;3.40;;;;;;;;;;5027054;28;20506;-61
2022/10/09 07:01:02;;;;;;;5.70;3.20;;;;;;;;;;5027026;28;20678;-61
2022/10/09 07:03:30;;;;;;;3.83;3.07;;;;;;;;;;5027739;28;20228;-61
2022/10/09 07:06:05;;;;;;;3.03;2.57;;;;;;;;;;5027333;28;20204;-61
2022/10/09 07:08:34;;;;;;;2.57;2.47;;;;;;;;;;5027013;28;20219;-61
2022/10/09 07:11:01;;;;;;;3.23;3.03;;;;;;;;;;5027169;28;20200;-60
2022/10/09 07:13:30;;;;;;;3.00;2.80;;;;;;;;;;5026381;28;20204;-61
2022/10/09 07:15:57;;;;;;;4.70;2.90;;;;;;;;;;5026767;28;20236;-60
2022/10/09 07:18:24;;;;;;;6.10;2.97;;;;;;;;;;5026285;28;20314;-60
2022/10/09 07:20:51;;;;;;;6.43;2.67;;;;;;;;;;5026878;28;20555;-60
2022/10/09 07:23:18;;;;;;;2.70;2.53;;;;;;;;;;5025503;28;20204;-60
2022/10/09 07:25:47;;;;;;;5.30;2.93;;;;;;;;;;5025052;28;20196;-60
2022/10/09 07:28:14;;;;;;;3.23;2.43;;;;;;;;;;5026090;28;20228;-60
2022/10/09 07:30:41;;;;;;;3.03;2.83;;;;;;;;;;5026211;28;20214;-60
2022/10/09 07:33:08;;;;;;;2.87;2.67;;;;;;;;;;5025953;28;20200;-60
2022/10/09 07:35:35;;;;;;;4.00;3.63;;;;;;;;;;5026393;28;20201;-60
2022/10/09 07:38:04;;;;;;;4.50;3.30;;;;;;;;;;5025731;28;20224;-60
2022/10/09 07:40:34;;;;;;;4.23;2.63;;;;;;;;;;5024152;28;20196;-60
2022/10/09 07:43:02;;;;;;;4.70;2.30;;;;;;;;;;5026710;28;20636;-60
2022/10/09 07:45:29;;;;;;;1.70;1.53;;;;;;;;;;5026207;28;20209;-60
2022/10/09 07:47:57;;;;;;;2.73;2.53;;;;;;;;;;5026501;28;20246;-60
2022/10/09 07:50:25;;;;;;;2.03;1.93;;;;;;;;;;5026126;28;20200;-60
2022/10/09 07:52:52;;;;;;;3.43;2.10;;;;;;;;;;5026233;28;20223;-60
2022/10/09 07:55:19;;;;;;;2.80;2.43;;;;;;;;;;5027077;28;20208;-60
2022/10/09 07:57:46;;;;;;;2.17;2.07;;;;;;;;;;5026640;28;20206;-60
2022/10/09 08:00:15;;;;;;;2.60;2.40;;;;;;;;;;5026115;28;20207;-60
2022/10/09 08:02:42;;;;;;;5.37;2.00;;;;;;;;;;5026575;28;20204;-59
2022/10/09 08:05:09;;;;;;;1.80;1.70;;;;;;;;;;5027259;28;20212;-60
2022/10/09 08:07:36;;;;;;;1.23;1.10;;;;;;;;;;5026484;28;20232;-60
2022/10/09 08:10:04;;;;;;;1.87;1.70;;;;;;;;;;5026695;28;20215;-59
2022/10/09 08:12:31;;;;;;;2.53;2.40;;;;;;;;;;5026093;28;20215;-60
2022/10/09 08:14:58;;;;;;;2.77;2.07;;;;;;;;;;5025552;28;20204;-60
2022/10/09 08:17:26;;;;;;;2.50;2.30;;;;;;;;;;5027077;28;20196;-60
2022/10/09 08:19:53;;;;;;;1.60;1.50;;;;;;;;;;5025564;28;20200;-60
2022/10/09 08:22:20;;;;;;;1.43;1.43;;;;;;;;;;5025184;28;20216;-60
2022/10/09 08:24:47;;;;;;;1.80;1.77;;;;;;;;;;5025282;28;20284;-61
2022/10/09 08:27:14;;;;;;;1.63;1.63;;;;;;;;;;5026157;28;20256;-60
2022/10/09 08:29:41;;;;;;;4.87;1.70;;;;;;;;;;5027002;28;20211;-60
2022/10/09 08:32:08;;;;;;;6.70;1.67;;;;;;;;;;5025793;28;20789;-60
2022/10/09 08:34:37;;;;;;;2.60;1.60;;;;;;;;;;5025571;28;20212;-59
2022/10/09 08:37:04;;;;;;;1.63;1.53;;;;;;;;;;5030440;28;20200;-59
2022/10/09 08:39:31;;;;;;;1.33;1.27;;;;;;;;;;5029908;28;20212;-59
2022/10/09 08:42:00;;;;;;;1.87;1.77;;;;;;;;;;5029833;28;20204;-59
2022/10/09 08:44:30;;;;;;;1.87;1.53;;;;;;;;;;5027946;28;20205;-59
2022/10/09 08:47:04;;;;;;;4.73;1.70;;;;;;;;;;5029607;28;20224;-59
2022/10/09 08:49:38;;;;;;;1.27;1.27;;;;;;;;;;5028879;28;20203;-60
2022/10/09 08:52:14;;;;;;;1.50;1.40;;;;;;;;;;5028833;28;20204;-60
2022/10/09 08:54:41;;;;;;;2.17;1.30;;;;;;;;;;5029374;28;20215;-60
2022/10/09 08:57:11;;;;;;;1.50;1.40;;;;;;;;;;5029853;28;20204;-59
2022/10/09 08:59:38;;;;;;;1.40;1.33;;;;;;;;;;5028735;28;20848;-59
2022/10/09 09:02:09;;;;;;;1.57;1.47;;;;;;;;;;5029838;28;20489;-58
2022/10/09 09:04:50;;;;;;;0.50;0.50;;;;;;;;;;5029748;28;20239;-60
2022/10/09 09:07:23;;;;;;;1.33;1.33;;;;;;;;;;5028118;28;20223;-60
2022/10/09 09:09:53;;;;;;;1.60;1.50;;;;;;;;;;5026214;28;20208;-57
2022/10/09 09:12:24;;;;;;;3.67;1.43;;;;;;;;;;5029037;28;20209;-57
2022/10/09 09:14:58;;;;;;;1.60;1.10;;;;;;;;;;5028882;28;20872;-59
2022/10/09 09:17:30;;;;;;;1.23;1.23;;;;;;;;;;5028314;28;20215;-58
2022/10/09 09:20:03;;;;;;;1.17;1.17;;;;;;;;;;5026202;28;20211;-58
2022/10/09 09:22:32;;;;;;;1.20;1.20;;;;;;;;;;5027751;28;20208;-58
2022/10/09 09:25:00;;;;;;;1.23;1.03;;;;;;;;;;5028803;28;20204;-58
2022/10/09 09:27:29;;;;;;;1.20;1.10;;;;;;;;;;5028522;28;20706;-58
2022/10/09 09:29:59;;;;;;;1.57;1.47;;;;;;;;;;5028920;28;20200;-59
2022/10/09 09:32:28;;;;;;;1.00;0.90;;;;;;;;;;5028215;28;20201;-58
2022/10/09 09:34:59;;;;;;;3.60;1.80;;;;;;;;;;5028662;28;20219;-59
2022/10/09 09:37:26;;;;;;;0.93;0.80;;;;;;;;;;5028276;28;20957;-59
2022/10/09 09:39:55;;;;;;;0.80;0.80;;;;;;;;;;5024133;28;20201;-59
2022/10/09 09:42:22;;;;;;;1.23;1.10;;;;;;;;;;5028148;28;20211;-59
2022/10/09 09:44:51;;;;;;;0.90;0.90;;;;;;;;;;5028466;28;20734;-59
2022/10/09 09:47:22;;;;;;;1.03;0.80;;;;;;;;;;5027975;28;20251;-59
2022/10/09 09:49:56;;;;;;;2.33;0.50;;;;;;;;;;5024082;28;20234;-59
2022/10/09 09:52:25;;;;;;;2.47;0.87;;;;;;;;;;5024989;28;20212;-59
2022/10/09 09:54:52;;;;;;;4.53;0.90;;;;;;;;;;5028191;28;20208;-59
2022/10/09 09:57:28;;;;;;;3.50;1.17;;;;;;;;;;5023725;28;20208;-59
2022/10/09 09:59:55;;;;;;;0.40;0.40;;;;;;;;;;5027948;28;20209;-59
2022/10/09 10:02:22;;;;;;;0.80;0.80;;;;;;;;;;5025829;28;20211;-59
2022/10/09 10:04:51;;;;;;;1.33;0.77;;;;;;;;;;5027911;28;20250;-59
2022/10/09 10:07:27;;;;;;;0.70;0.70;;;;;;;;;;5028682;28;20232;-59
2022/10/09 10:10:01;;;;;;;0.50;0.50;;;;;;;;;;5028909;28;20208;-59
2022/10/09 10:12:30;;;;;;;0.95;0.68;;;;;;;;;;5028536;28;20964;-59
2022/10/09 10:14:57;;;;;;;2.40;0.77;;;;;;;;;;5027601;28;20220;-59
2022/10/09 10:17:26;;;;;;;1.77;0.70;;;;;;;;;;5028029;28;20616;-59
2022/10/09 10:19:53;;;;;;;1.00;1.00;;;;;;;;;;5028387;28;20209;-59
2022/10/09 10:22:22;;;;;;;0.90;0.90;;;;;;;;;;5027165;28;20224;-58
2022/10/09 10:24:50;;;;;;;0.77;0.77;;;;;;;;;;5025560;28;20596;-59
2022/10/09 10:27:23;;;;;;;0.50;0.50;;;;;;;;;;5027657;28;20243;-59
2022/10/09 10:29:59;;;;;;;1.45;0.90;;;;;;;;;;5028498;28;20307;-59
2022/10/09 10:32:28;;;;;;;1.30;1.10;;;;;;;;;;5028819;28;20211;-59
2022/10/09 10:34:58;;;;;;;3.37;1.13;;;;;;;;;;5028860;28;20220;-59
2022/10/09 10:37:31;;;;;;;0.80;0.80;;;;;;;;;;5028419;28;20642;-58
2022/10/09 10:40:01;;;;;;;1.02;0.80;;;;;;;;;;5029141;28;20322;-58
2022/10/09 10:42:33;;;;;;;0.82;0.82;;;;;;;;;;5028946;28;20208;-59
2022/10/09 10:45:04;;;;;;;0.90;0.90;;;;;;;;;;5028593;28;20603;-60
2022/10/09 10:47:35;;;;;;;1.08;1.08;;;;;;;;;;5027902;28;20242;-59
2022/10/09 10:50:02;;;;;;;0.85;0.85;;;;;;;;;;5028250;28;20223;-59
2022/10/09 10:52:36;;;;;;;1.15;0.60;;;;;;;;;;5027930;28;20212;-59
2022/10/09 10:55:11;;;;;;;3.00;1.08;;;;;;;;;;5027555;28;20215;-59
2022/10/09 10:57:41;;;;;;;0.93;0.93;;;;;;;;;;5028440;28;20632;-59
2022/10/09 11:00:11;;;;;;;0.95;0.95;;;;;;;;;;5027758;28;20207;-59
2022/10/09 11:02:56;;;;;;;0.52;0.52;;;;;;;;;;5028008;28;20208;-59
2022/10/09 11:05:28;;;;;;;0.52;0.52;;;;;;;;;;5026849;28;20212;-59
2022/10/09 11:08:11;;;;;;;0.80;0.80;;;;;;;;;;5027289;28;20220;-60
2022/10/09 11:10:45;;;;;;;0.82;0.80;;;;;;;;;;5025702;28;20215;-61
2022/10/09 11:13:16;;;;;;;1.67;0.90;;;;;;;;;;5019814;28;20204;-60
2022/10/09 11:15:49;;;;;;;0.65;0.63;;;;;;;;;;5027968;28;20209;-60
2022/10/09 11:18:22;;;;;;;1.25;0.68;;;;;;;;;;5027537;28;20204;-60
2022/10/09 11:21:05;;;;;;;0.65;0.65;;;;;;;;;;5018159;28;20694;-60
2022/10/09 11:23:44;;;;;;;0.77;0.77;;;;;;;;;;5026568;28;20597;-59
2022/10/09 11:26:17;;;;;;;0.57;0.57;;;;;;;;;;5027688;28;20266;-59
2022/10/09 11:28:46;;;;;;;0.68;0.68;;;;;;;;;;5026483;28;20228;-61
2022/10/09 11:31:16;;;;;;;2.72;0.70;;;;;;;;;;5028351;28;20220;-60
2022/10/09 11:33:45;;;;;;;1.13;0.88;;;;;;;;;;5027344;28;20239;-60
2022/10/09 11:36:14;;;;;;;0.63;0.60;;;;;;;;;;5026000;28;20686;-60
2022/10/09 11:38:44;;;;;;;1.08;0.60;;;;;;;;;;5026955;28;20556;-60
2022/10/09 11:41:11;;;;;;;1.95;0.40;;;;;;;;;;5024548;28;20295;-60
2022/10/09 11:43:50;;;;;;;1.55;0.80;;;;;;;;;;5026361;28;20208;-60
2022/10/09 11:46:22;;;;;;;0.55;0.55;;;;;;;;;;5025993;28;20663;-60
2022/10/09 11:48:52;;;;;;;0.98;0.80;;;;;;;;;;5025337;28;20448;-60
2022/10/09 11:51:25;;;;;;;0.50;0.50;;;;;;;;;;5025607;28;20212;-60
2022/10/09 11:53:52;;;;;;;0.60;0.60;;;;;;;;;;5026233;28;20235;-60
2022/10/09 11:56:21;;;;;;;1.15;0.40;;;;;;;;;;5026290;28;20212;-60
2022/10/09 11:58:56;;;;;;;0.55;0.40;;;;;;;;;;5026561;28;20242;-60
2022/10/09 12:01:26;;;;;;;0.90;0.68;;;;;;;;;;5026091;28;20613;-59
2022/10/09 12:04:00;;;;;;;1.98;0.43;;;;;;;;;;5026027;28;20248;-61
2022/10/09 12:06:27;;;;;;;0.65;0.50;;;;;;;;;;5026465;28;20212;-60
2022/10/09 12:08:55;;;;;;;0.50;0.50;;;;;;;;;;5026286;28;20236;-60
2022/10/09 12:11:23;;;;;;;1.42;0.60;;;;;;;;;;5029092;28;20215;-61
2022/10/09 12:13:51;;;;;;;0.60;0.60;;;;;;;;;;5030029;28;20208;-61
2022/10/09 12:16:34;;;;;;;0.43;0.43;;;;;;;;;;5030221;28;20557;-61
2022/10/09 12:19:02;;;;;;;0.75;0.75;;;;;;;;;;5029853;28;20322;-61
2022/10/09 12:21:31;;;;;;;0.32;0.32;;;;;;;;;;5030222;28;20208;-61
2022/10/09 12:23:58;;;;;;;0.95;0.50;;;;;;;;;;5030328;28;20581;-61
2022/10/09 12:26:25;;;;;;;3.50;0.85;;;;;;;;;;5030544;28;20236;-61
2022/10/09 12:28:55;;;;;;;0.63;0.57;;;;;;;;;;5030326;28;20242;-60
2022/10/09 12:31:24;;;;;;;0.40;0.38;;;;;;;;;;5030466;28;20212;-61
2022/10/09 12:33:55;;;;;;;1.05;0.50;;;;;;;;;;5030210;28;20212;-61
2022/10/09 12:36:24;;;;;;;1.08;0.50;;;;;;;;;;5030366;28;20226;-60
2022/10/09 12:38:51;;;;;;;0.22;0.22;;;;;;;;;;5030320;28;20678;-61
2022/10/09 12:41:21;;;;;;;0.85;0.50;;;;;;;;;;5030346;28;20223;-61
2022/10/09 12:43:49;;;;;;;0.40;0.40;;;;;;;;;;5030220;28;20315;-61
2022/10/09 12:46:25;;;;;;;0.30;0.30;;;;;;;;;;5030483;28;20574;-61
2022/10/09 12:48:54;;;;;;;0.50;0.50;;;;;;;;;;5029848;28;20239;-61
2022/10/09 12:51:23;;;;;;;1.50;0.50;;;;;;;;;;5030069;28;20243;-61
2022/10/09 12:53:51;;;;;;;1.40;0.20;;;;;;;;;;5029852;28;20208;-61
2022/10/09 12:56:21;;;;;;;0.40;0.40;;;;;;;;;;5030079;28;20230;-61
2022/10/09 12:58:48;;;;;;;2.17;0.45;;;;;;;;;;5030207;28;20741;-61
2022/10/09 13:01:16;;;;;;;0.60;0.40;;;;;;;;;;5030094;28;20219;-61
2022/10/09 13:03:44;;;;;;;0.28;0.28;;;;;;;;;;5026712;28;20725;-61
2022/10/09 13:06:16;;;;;;;1.35;0.70;;;;;;;;;;5029645;28;20204;-62
2022/10/09 13:08:44;;;;;;;0.52;0.43;;;;;;;;;;5029270;28;20247;-63
2022/10/09 13:11:11;;;;;;;0.47;0.40;;;;;;;;;;5025074;28;20216;-60
2022/10/09 13:13:39;;;;;;;1.63;0.65;;;;;;;;;;5027557;28;20204;-61
2022/10/09 13:16:08;;;;;;;0.45;0.45;;;;;;;;;;5028310;28;20212;-61
2022/10/09 13:18:35;;;;;;;1.85;0.50;;;;;;;;;;5028106;28;20221;-60
2022/10/09 13:21:04;;;;;;;0.20;0.20;;;;;;;;;;5028987;28;20200;-59
2022/10/09 13:23:34;;;;;;;0.40;0.40;;;;;;;;;;5029055;28;20216;-60
2022/10/09 13:26:01;;;;;;;1.30;0.75;;;;;;;;;;5028480;28;20205;-59
2022/10/09 13:28:28;;;;;;;0.63;0.50;;;;;;;;;;5027682;28;20227;-58
2022/10/09 13:30:55;;;;;;;1.70;0.90;;;;;;;;;;5029658;28;20678;-59
2022/10/09 13:33:23;;;;;;;2.15;0.60;;;;;;;;;;5029439;28;20220;-60
2022/10/09 13:35:50;;;;;;;0.85;0.50;;;;;;;;;;5028841;28;20208;-60
2022/10/09 13:38:19;;;;;;;0.50;0.50;;;;;;;;;;5029506;28;20216;-60
2022/10/09 13:40:47;;;;;;;0.40;0.40;;;;;;;;;;5029194;28;20209;-60
2022/10/09 13:43:18;;;;;;;0.50;0.50;;;;;;;;;;5029004;28;20209;-59
2022/10/09 13:45:45;;;;;;;0.40;0.40;;;;;;;;;;5026355;28;20297;-61
2022/10/09 13:48:13;;;;;;;3.13;0.40;;;;;;;;;;5028317;28;20211;-60
2022/10/09 13:50:40;;;;;;;0.32;0.32;;;;;;;;;;5028829;28;20201;-60
2022/10/09 13:53:07;;;;;;;0.50;0.50;;;;;;;;;;5028184;28;20219;-59
2022/10/09 13:55:34;;;;;;;0.50;0.50;;;;;;;;;;5028757;28;20208;-60
2022/10/09 13:58:02;;;;;;;1.33;0.50;;;;;;;;;;5024306;28;20223;-60
2022/10/09 14:00:29;;;;;;;0.50;0.50;;;;;;;;;;5027324;28;20213;-59
2022/10/09 14:02:56;;;;;;;0.50;0.50;;;;;;;;;;5026229;28;20231;-60
2022/10/09 14:05:25;;;;;;;0.45;0.45;;;;;;;;;;5028651;28;20314;-60
2022/10/09 14:07:52;;;;;;;0.45;0.45;;;;;;;;;;5029206;28;20220;-60
2022/10/09 14:10:21;;;;;;;0.40;0.40;;;;;;;;;;5028638;28;20706;-59
2022/10/09 14:12:48;;;;;;;0.60;0.60;;;;;;;;;;5027869;28;20224;-59
2022/10/09 14:15:17;;;;;;;1.17;0.50;;;;;;;;;;5028257;28;20204;-60
2022/10/09 14:17:44;;;;;;;0.43;0.43;;;;;;;;;;5027929;28;20204;-59
2022/10/09 14:20:11;;;;;;;1.75;0.82;;;;;;;;;;5027883;28;20219;-60
2022/10/09 14:22:38;;;;;;;1.55;0.50;;;;;;;;;;5026791;28;20583;-60
2022/10/09 14:25:06;;;;;;;2.95;0.60;;;;;;;;;;5027069;28;20201;-60
2022/10/09 14:27:33;;;;;;;1.98;0.50;;;;;;;;;;5027602;28;20243;-60
2022/10/09 14:30:00;;;;;;;0.50;0.50;;;;;;;;;;5027560;28;20235;-60
2022/10/09 14:32:28;;;;;;;0.50;0.50;;;;;;;;;;5027260;28;20208;-60
2022/10/09 14:34:55;;;;;;;0.60;0.60;;;;;;;;;;5027233;28;20231;-60
2022/10/09 14:37:22;;;;;;;0.40;0.40;;;;;;;;;;5023889;28;20730;-59
2022/10/09 14:39:49;;;;;;;0.90;0.75;;;;;;;;;;5027776;28;20204;-60
2022/10/09 14:42:17;;;;;;;1.90;1.20;;;;;;;;;;5025016;28;20205;-59
2022/10/09 14:44:44;;;;;;;2.25;0.90;;;;;;;;;;5028102;28;20222;-59
2022/10/09 14:47:11;;;;;;;0.40;0.40;;;;;;;;;;5028284;28;20239;-59
2022/10/09 14:49:42;;;;;;;0.80;0.80;;;;;;;;;;5027216;28;20587;-60
2022/10/09 14:52:09;;;;;;;0.50;0.50;;;;;;;;;;5027426;28;20213;-60